sensor_id;sensor_type;location;lat;lon;timestamp;P1;durP1;ratioP1;P2;durP2;ratioP2
52962;SDS011;38827;53.024;6.596;2022-10-16T00:00:08;9.05;;;2.40;;
52962;SDS011;38827;53.024;6.596;2022-10-16T00:02:35;7.45;;;2.03;;
52962;SDS011;38827;53.024;6.596;2022-10-16T00:05:01;7.10;;;2.13;;
52962;SDS011;38827;53.024;6.596;2022-10-16T00:07:26;9.27;;;2.30;;
52962;SDS011;38827;53.024;6.596;2022-10-16T00:09:52;5.80;;;1.88;;
52962;SDS011;38827;53.024;6.596;2022-10-16T00:12:21;8.77;;;2.60;;
52962;SDS011;38827;53.024;6.596;2022-10-16T00:14:53;8.93;;;2.38;;
52962;SDS011;38827;53.024;6.596;2022-10-16T00:17:18;12.05;;;2.30;;
52962;SDS011;38827;53.024;6.596;2022-10-16T00:19:47;8.18;;;2.30;;
52962;SDS011;38827;53.024;6.596;2022-10-16T00:22:13;7.03;;;2.53;;
52962;SDS011;38827;53.024;6.596;2022-10-16T00:24:38;6.40;;;1.60;;
52962;SDS011;38827;53.024;6.596;2022-10-16T00:27:04;5.82;;;1.90;;
52962;SDS011;38827;53.024;6.596;2022-10-16T00:29:29;6.45;;;1.77;;
52962;SDS011;38827;53.024;6.596;2022-10-16T00:37:43;7.22;;;1.65;;
52962;SDS011;38827;53.024;6.596;2022-10-16T00:40:08;7.72;;;2.05;;
52962;SDS011;38827;53.024;6.596;2022-10-16T00:42:37;7.73;;;1.90;;
52962;SDS011;38827;53.024;6.596;2022-10-16T00:45:10;6.97;;;1.65;;
52962;SDS011;38827;53.024;6.596;2022-10-16T00:47:40;5.35;;;1.90;;
52962;SDS011;38827;53.024;6.596;2022-10-16T00:50:23;3.92;;;1.33;;
52962;SDS011;38827;53.024;6.596;2022-10-16T00:52:58;5.10;;;1.60;;
52962;SDS011;38827;53.024;6.596;2022-10-16T00:55:26;4.45;;;1.30;;
52962;SDS011;38827;53.024;6.596;2022-10-16T00:57:55;8.40;;;1.65;;
52962;SDS011;38827;53.024;6.596;2022-10-16T01:00:25;5.68;;;1.65;;
52962;SDS011;38827;53.024;6.596;2022-10-16T01:02:52;4.70;;;1.40;;
52962;SDS011;38827;53.024;6.596;2022-10-16T01:06:05;3.90;;;1.30;;
52962;SDS011;38827;53.024;6.596;2022-10-16T01:09:03;6.72;;;1.92;;
52962;SDS011;38827;53.024;6.596;2022-10-16T01:11:47;5.80;;;2.00;;
52962;SDS011;38827;53.024;6.596;2022-10-16T01:16:57;5.60;;;1.50;;
52962;SDS011;38827;53.024;6.596;2022-10-16T01:19:51;5.97;;;1.45;;
52962;SDS011;38827;53.024;6.596;2022-10-16T01:22:43;6.07;;;1.35;;
52962;SDS011;38827;53.024;6.596;2022-10-16T01:28:34;9.35;;;1.67;;
52962;SDS011;38827;53.024;6.596;2022-10-16T01:31:29;5.80;;;1.60;;
52962;SDS011;38827;53.024;6.596;2022-10-16T01:36:50;4.95;;;1.35;;
52962;SDS011;38827;53.024;6.596;2022-10-16T01:39:35;7.03;;;1.92;;
52962;SDS011;38827;53.024;6.596;2022-10-16T01:42:20;6.57;;;2.03;;
52962;SDS011;38827;53.024;6.596;2022-10-16T01:44:47;5.00;;;1.95;;
52962;SDS011;38827;53.024;6.596;2022-10-16T01:47:18;3.65;;;1.48;;
52962;SDS011;38827;53.024;6.596;2022-10-16T01:49:48;4.38;;;1.42;;
52962;SDS011;38827;53.024;6.596;2022-10-16T01:52:16;7.30;;;1.88;;
52962;SDS011;38827;53.024;6.596;2022-10-16T01:54:46;6.88;;;2.45;;
52962;SDS011;38827;53.024;6.596;2022-10-16T01:57:14;4.90;;;1.80;;
52962;SDS011;38827;53.024;6.596;2022-10-16T01:59:47;8.35;;;1.65;;
52962;SDS011;38827;53.024;6.596;2022-10-16T02:02:17;3.55;;;1.70;;
52962;SDS011;38827;53.024;6.596;2022-10-16T02:04:46;5.95;;;1.52;;
52962;SDS011;38827;53.024;6.596;2022-10-16T02:07:16;4.13;;;1.77;;
52962;SDS011;38827;53.024;6.596;2022-10-16T02:09:43;8.00;;;1.88;;
52962;SDS011;38827;53.024;6.596;2022-10-16T02:12:13;5.82;;;1.75;;
52962;SDS011;38827;53.024;6.596;2022-10-16T02:14:55;3.65;;;1.52;;
52962;SDS011;38827;53.024;6.596;2022-10-16T02:17:21;5.60;;;1.60;;
52962;SDS011;38827;53.024;6.596;2022-10-16T02:19:48;4.28;;;1.20;;
52962;SDS011;38827;53.024;6.596;2022-10-16T02:22:35;4.93;;;1.80;;
52962;SDS011;38827;53.024;6.596;2022-10-16T02:25:06;3.00;;;1.50;;
52962;SDS011;38827;53.024;6.596;2022-10-16T02:28:16;6.75;;;1.55;;
52962;SDS011;38827;53.024;6.596;2022-10-16T02:30:41;2.38;;;1.40;;
52962;SDS011;38827;53.024;6.596;2022-10-16T02:33:10;3.72;;;1.50;;
52962;SDS011;38827;53.024;6.596;2022-10-16T02:35:38;5.32;;;1.60;;
52962;SDS011;38827;53.024;6.596;2022-10-16T02:38:06;3.45;;;1.38;;
52962;SDS011;38827;53.024;6.596;2022-10-16T02:40:32;2.03;;;1.30;;
52962;SDS011;38827;53.024;6.596;2022-10-16T02:42:58;3.00;;;1.40;;
52962;SDS011;38827;53.024;6.596;2022-10-16T02:45:24;4.05;;;1.42;;
52962;SDS011;38827;53.024;6.596;2022-10-16T02:47:50;3.63;;;1.40;;
52962;SDS011;38827;53.024;6.596;2022-10-16T02:50:16;4.82;;;1.48;;
52962;SDS011;38827;53.024;6.596;2022-10-16T02:52:42;3.97;;;1.50;;
52962;SDS011;38827;53.024;6.596;2022-10-16T02:55:11;5.82;;;1.40;;
52962;SDS011;38827;53.024;6.596;2022-10-16T02:57:36;3.03;;;1.60;;
52962;SDS011;38827;53.024;6.596;2022-10-16T03:00:03;7.03;;;1.50;;
52962;SDS011;38827;53.024;6.596;2022-10-16T03:02:30;5.68;;;1.70;;
52962;SDS011;38827;53.024;6.596;2022-10-16T03:04:55;4.38;;;1.70;;
52962;SDS011;38827;53.024;6.596;2022-10-16T03:07:21;4.00;;;1.73;;
52962;SDS011;38827;53.024;6.596;2022-10-16T03:09:49;3.80;;;1.60;;
52962;SDS011;38827;53.024;6.596;2022-10-16T03:12:23;4.97;;;1.60;;
52962;SDS011;38827;53.024;6.596;2022-10-16T03:14:55;2.33;;;1.48;;
52962;SDS011;38827;53.024;6.596;2022-10-16T03:17:24;4.47;;;1.50;;
52962;SDS011;38827;53.024;6.596;2022-10-16T03:19:50;6.53;;;2.08;;
52962;SDS011;38827;53.024;6.596;2022-10-16T03:22:16;4.83;;;1.60;;
52962;SDS011;38827;53.024;6.596;2022-10-16T03:24:47;5.47;;;1.50;;
52962;SDS011;38827;53.024;6.596;2022-10-16T03:27:13;4.63;;;1.73;;
52962;SDS011;38827;53.024;6.596;2022-10-16T03:29:39;3.95;;;1.60;;
52962;SDS011;38827;53.024;6.596;2022-10-16T03:32:05;4.78;;;1.50;;
52962;SDS011;38827;53.024;6.596;2022-10-16T03:34:30;5.35;;;1.50;;
52962;SDS011;38827;53.024;6.596;2022-10-16T03:36:56;3.10;;;1.45;;
52962;SDS011;38827;53.024;6.596;2022-10-16T03:39:22;5.32;;;1.73;;
52962;SDS011;38827;53.024;6.596;2022-10-16T03:41:47;4.90;;;1.80;;
52962;SDS011;38827;53.024;6.596;2022-10-16T03:44:13;5.35;;;2.10;;
52962;SDS011;38827;53.024;6.596;2022-10-16T03:46:39;5.15;;;1.70;;
52962;SDS011;38827;53.024;6.596;2022-10-16T03:49:04;3.35;;;1.50;;
52962;SDS011;38827;53.024;6.596;2022-10-16T03:51:30;5.55;;;2.00;;
52962;SDS011;38827;53.024;6.596;2022-10-16T03:53:56;3.80;;;1.60;;
52962;SDS011;38827;53.024;6.596;2022-10-16T03:56:22;2.22;;;1.42;;
52962;SDS011;38827;53.024;6.596;2022-10-16T03:58:47;5.40;;;1.80;;
52962;SDS011;38827;53.024;6.596;2022-10-16T04:01:14;3.10;;;1.50;;
52962;SDS011;38827;53.024;6.596;2022-10-16T04:03:40;2.85;;;1.60;;
52962;SDS011;38827;53.024;6.596;2022-10-16T04:06:17;7.28;;;1.75;;
52962;SDS011;38827;53.024;6.596;2022-10-16T04:08:46;3.65;;;1.65;;
52962;SDS011;38827;53.024;6.596;2022-10-16T04:11:12;5.65;;;1.70;;
52962;SDS011;38827;53.024;6.596;2022-10-16T04:13:38;4.57;;;1.75;;
52962;SDS011;38827;53.024;6.596;2022-10-16T04:16:03;2.70;;;1.65;;
52962;SDS011;38827;53.024;6.596;2022-10-16T04:18:29;6.85;;;1.55;;
52962;SDS011;38827;53.024;6.596;2022-10-16T04:21:02;5.15;;;2.03;;
52962;SDS011;38827;53.024;6.596;2022-10-16T04:23:29;5.50;;;1.67;;
52962;SDS011;38827;53.024;6.596;2022-10-16T04:25:55;4.10;;;1.70;;
52962;SDS011;38827;53.024;6.596;2022-10-16T04:28:20;3.95;;;1.75;;
52962;SDS011;38827;53.024;6.596;2022-10-16T04:30:46;4.07;;;1.60;;
52962;SDS011;38827;53.024;6.596;2022-10-16T04:33:12;4.57;;;1.90;;
52962;SDS011;38827;53.024;6.596;2022-10-16T04:35:38;3.57;;;1.70;;
52962;SDS011;38827;53.024;6.596;2022-10-16T04:38:04;4.45;;;1.80;;
52962;SDS011;38827;53.024;6.596;2022-10-16T04:40:30;7.22;;;1.70;;
52962;SDS011;38827;53.024;6.596;2022-10-16T04:43:01;3.08;;;1.83;;
52962;SDS011;38827;53.024;6.596;2022-10-16T04:45:30;4.63;;;1.98;;
52962;SDS011;38827;53.024;6.596;2022-10-16T04:47:56;5.68;;;2.33;;
52962;SDS011;38827;53.024;6.596;2022-10-16T04:50:23;3.30;;;1.83;;
52962;SDS011;38827;53.024;6.596;2022-10-16T04:52:49;3.95;;;2.10;;
52962;SDS011;38827;53.024;6.596;2022-10-16T04:55:14;6.00;;;2.00;;
52962;SDS011;38827;53.024;6.596;2022-10-16T04:57:40;4.25;;;1.80;;
52962;SDS011;38827;53.024;6.596;2022-10-16T05:00:06;5.03;;;2.05;;
52962;SDS011;38827;53.024;6.596;2022-10-16T05:02:33;3.90;;;2.00;;
52962;SDS011;38827;53.024;6.596;2022-10-16T05:04:59;5.23;;;2.10;;
52962;SDS011;38827;53.024;6.596;2022-10-16T05:07:25;4.20;;;2.17;;
52962;SDS011;38827;53.024;6.596;2022-10-16T05:09:50;5.15;;;2.10;;
52962;SDS011;38827;53.024;6.596;2022-10-16T05:12:16;3.50;;;1.83;;
52962;SDS011;38827;53.024;6.596;2022-10-16T05:14:57;4.55;;;2.10;;
52962;SDS011;38827;53.024;6.596;2022-10-16T05:17:24;6.78;;;2.03;;
52962;SDS011;38827;53.024;6.596;2022-10-16T05:19:50;3.65;;;2.30;;
52962;SDS011;38827;53.024;6.596;2022-10-16T05:22:16;5.03;;;2.05;;
52962;SDS011;38827;53.024;6.596;2022-10-16T05:24:41;5.82;;;2.22;;
52962;SDS011;38827;53.024;6.596;2022-10-16T05:27:07;6.57;;;2.40;;
52962;SDS011;38827;53.024;6.596;2022-10-16T05:29:33;5.00;;;2.22;;
52962;SDS011;38827;53.024;6.596;2022-10-16T05:31:58;6.15;;;2.20;;
52962;SDS011;38827;53.024;6.596;2022-10-16T05:34:24;3.75;;;2.10;;
52962;SDS011;38827;53.024;6.596;2022-10-16T05:36:50;3.47;;;1.83;;
52962;SDS011;38827;53.024;6.596;2022-10-16T05:39:16;5.70;;;2.20;;
52962;SDS011;38827;53.024;6.596;2022-10-16T05:41:42;5.68;;;2.38;;
52962;SDS011;38827;53.024;6.596;2022-10-16T05:44:10;4.95;;;1.88;;
52962;SDS011;38827;53.024;6.596;2022-10-16T05:46:46;8.55;;;2.72;;
52962;SDS011;38827;53.024;6.596;2022-10-16T05:49:26;4.15;;;1.90;;
52962;SDS011;38827;53.024;6.596;2022-10-16T05:52:01;6.65;;;2.50;;
52962;SDS011;38827;53.024;6.596;2022-10-16T05:54:26;5.22;;;2.20;;
52962;SDS011;38827;53.024;6.596;2022-10-16T05:57:01;6.22;;;2.22;;
52962;SDS011;38827;53.024;6.596;2022-10-16T05:59:27;5.10;;;2.20;;
52962;SDS011;38827;53.024;6.596;2022-10-16T06:02:02;4.13;;;2.03;;
52962;SDS011;38827;53.024;6.596;2022-10-16T06:04:36;4.95;;;2.30;;
52962;SDS011;38827;53.024;6.596;2022-10-16T06:07:02;6.43;;;2.22;;
52962;SDS011;38827;53.024;6.596;2022-10-16T06:09:28;5.30;;;2.30;;
52962;SDS011;38827;53.024;6.596;2022-10-16T06:11:54;4.03;;;2.42;;
52962;SDS011;38827;53.024;6.596;2022-10-16T06:14:20;5.28;;;2.10;;
52962;SDS011;38827;53.024;6.596;2022-10-16T06:16:57;4.60;;;1.80;;
52962;SDS011;38827;53.024;6.596;2022-10-16T06:19:23;6.03;;;2.10;;
52962;SDS011;38827;53.024;6.596;2022-10-16T06:21:53;7.28;;;2.28;;
52962;SDS011;38827;53.024;6.596;2022-10-16T06:24:19;5.38;;;2.28;;
52962;SDS011;38827;53.024;6.596;2022-10-16T06:26:45;4.47;;;2.20;;
52962;SDS011;38827;53.024;6.596;2022-10-16T06:29:58;6.22;;;2.40;;
52962;SDS011;38827;53.024;6.596;2022-10-16T06:32:35;7.05;;;2.53;;
52962;SDS011;38827;53.024;6.596;2022-10-16T06:35:01;6.25;;;2.65;;
52962;SDS011;38827;53.024;6.596;2022-10-16T06:37:27;4.13;;;2.30;;
52962;SDS011;38827;53.024;6.596;2022-10-16T06:40:00;6.40;;;2.45;;
52962;SDS011;38827;53.024;6.596;2022-10-16T06:42:30;6.30;;;2.15;;
52962;SDS011;38827;53.024;6.596;2022-10-16T06:44:56;7.25;;;2.47;;
52962;SDS011;38827;53.024;6.596;2022-10-16T06:47:31;3.75;;;1.83;;
52962;SDS011;38827;53.024;6.596;2022-10-16T06:49:56;5.07;;;2.10;;
52962;SDS011;38827;53.024;6.596;2022-10-16T06:52:49;5.07;;;2.30;;
52962;SDS011;38827;53.024;6.596;2022-10-16T06:55:15;5.07;;;2.22;;
52962;SDS011;38827;53.024;6.596;2022-10-16T07:00:37;5.60;;;2.17;;
52962;SDS011;38827;53.024;6.596;2022-10-16T07:03:36;5.70;;;2.03;;
52962;SDS011;38827;53.024;6.596;2022-10-16T07:06:06;5.15;;;2.22;;
52962;SDS011;38827;53.024;6.596;2022-10-16T07:08:40;4.45;;;2.22;;
52962;SDS011;38827;53.024;6.596;2022-10-16T07:11:16;4.25;;;1.98;;
52962;SDS011;38827;53.024;6.596;2022-10-16T07:13:43;3.90;;;2.20;;
52962;SDS011;38827;53.024;6.596;2022-10-16T07:16:27;2.88;;;2.15;;
52962;SDS011;38827;53.024;6.596;2022-10-16T07:19:07;5.00;;;2.20;;
52962;SDS011;38827;53.024;6.596;2022-10-16T07:21:51;3.63;;;2.05;;
52962;SDS011;38827;53.024;6.596;2022-10-16T07:24:17;4.63;;;2.00;;
52962;SDS011;38827;53.024;6.596;2022-10-16T07:26:55;4.63;;;2.08;;
52962;SDS011;38827;53.024;6.596;2022-10-16T07:29:25;4.72;;;2.00;;
52962;SDS011;38827;53.024;6.596;2022-10-16T07:31:57;3.33;;;1.90;;
52962;SDS011;38827;53.024;6.596;2022-10-16T07:34:38;3.83;;;1.50;;
52962;SDS011;38827;53.024;6.596;2022-10-16T07:37:07;5.57;;;2.20;;
52962;SDS011;38827;53.024;6.596;2022-10-16T07:39:33;5.25;;;2.38;;
52962;SDS011;38827;53.024;6.596;2022-10-16T07:41:59;3.45;;;1.60;;
52962;SDS011;38827;53.024;6.596;2022-10-16T07:44:24;3.08;;;1.70;;
52962;SDS011;38827;53.024;6.596;2022-10-16T07:46:50;5.95;;;2.33;;
52962;SDS011;38827;53.024;6.596;2022-10-16T07:49:25;7.20;;;1.88;;
52962;SDS011;38827;53.024;6.596;2022-10-16T07:51:50;11.32;;;2.00;;
52962;SDS011;38827;53.024;6.596;2022-10-16T07:54:32;4.85;;;1.70;;
52962;SDS011;38827;53.024;6.596;2022-10-16T07:56:58;3.58;;;1.67;;
52962;SDS011;38827;53.024;6.596;2022-10-16T07:59:27;4.50;;;1.92;;
52962;SDS011;38827;53.024;6.596;2022-10-16T08:01:53;3.22;;;1.50;;
52962;SDS011;38827;53.024;6.596;2022-10-16T08:04:37;4.90;;;1.80;;
52962;SDS011;38827;53.024;6.596;2022-10-16T08:07:18;4.15;;;1.92;;
52962;SDS011;38827;53.024;6.596;2022-10-16T08:09:59;3.45;;;1.60;;
52962;SDS011;38827;53.024;6.596;2022-10-16T08:12:25;4.57;;;1.50;;
52962;SDS011;38827;53.024;6.596;2022-10-16T08:14:56;3.08;;;1.48;;
52962;SDS011;38827;53.024;6.596;2022-10-16T08:17:25;4.35;;;1.40;;
52962;SDS011;38827;53.024;6.596;2022-10-16T08:19:51;4.88;;;1.20;;
52962;SDS011;38827;53.024;6.596;2022-10-16T08:22:28;9.82;;;2.20;;
52962;SDS011;38827;53.024;6.596;2022-10-16T08:24:57;5.32;;;1.35;;
52962;SDS011;38827;53.024;6.596;2022-10-16T08:27:38;4.70;;;1.48;;
52962;SDS011;38827;53.024;6.596;2022-10-16T08:30:09;3.00;;;1.20;;
52962;SDS011;38827;53.024;6.596;2022-10-16T08:33:15;2.88;;;1.00;;
52962;SDS011;38827;53.024;6.596;2022-10-16T08:35:50;5.30;;;1.58;;
52962;SDS011;38827;53.024;6.596;2022-10-16T08:38:37;4.70;;;1.00;;
52962;SDS011;38827;53.024;6.596;2022-10-16T08:50:30;3.55;;;0.80;;
52962;SDS011;38827;53.024;6.596;2022-10-16T08:58:15;2.47;;;0.82;;
52962;SDS011;38827;53.024;6.596;2022-10-16T09:01:01;3.88;;;1.02;;
52962;SDS011;38827;53.024;6.596;2022-10-16T09:19:16;5.20;;;1.20;;
52962;SDS011;38827;53.024;6.596;2022-10-16T09:22:01;4.72;;;1.33;;
52962;SDS011;38827;53.024;6.596;2022-10-16T09:24:43;5.65;;;1.25;;
52962;SDS011;38827;53.024;6.596;2022-10-16T09:27:18;5.43;;;1.25;;
52962;SDS011;38827;53.024;6.596;2022-10-16T09:29:44;5.95;;;1.40;;
52962;SDS011;38827;53.024;6.596;2022-10-16T09:32:11;5.03;;;1.43;;
52962;SDS011;38827;53.024;6.596;2022-10-16T09:34:50;3.75;;;1.20;;
52962;SDS011;38827;53.024;6.596;2022-10-16T09:37:26;4.93;;;1.45;;
52962;SDS011;38827;53.024;6.596;2022-10-16T09:49:28;6.13;;;1.38;;
52962;SDS011;38827;53.024;6.596;2022-10-16T09:54:58;6.65;;;1.55;;
52962;SDS011;38827;53.024;6.596;2022-10-16T09:57:35;12.18;;;2.08;;
52962;SDS011;38827;53.024;6.596;2022-10-16T10:00:08;7.28;;;1.92;;
52962;SDS011;38827;53.024;6.596;2022-10-16T10:03:00;7.32;;;1.77;;
52962;SDS011;38827;53.024;6.596;2022-10-16T10:05:31;8.27;;;1.70;;
52962;SDS011;38827;53.024;6.596;2022-10-16T10:07:59;6.07;;;1.80;;
52962;SDS011;38827;53.024;6.596;2022-10-16T10:10:52;11.63;;;1.70;;
52962;SDS011;38827;53.024;6.596;2022-10-16T10:13:25;8.05;;;1.88;;
52962;SDS011;38827;53.024;6.596;2022-10-16T10:16:04;9.98;;;1.48;;
52962;SDS011;38827;53.024;6.596;2022-10-16T10:18:57;7.95;;;1.63;;
52962;SDS011;38827;53.024;6.596;2022-10-16T10:21:39;7.07;;;1.48;;
52962;SDS011;38827;53.024;6.596;2022-10-16T10:24:39;7.57;;;1.65;;
52962;SDS011;38827;53.024;6.596;2022-10-16T10:27:13;11.05;;;1.92;;
52962;SDS011;38827;53.024;6.596;2022-10-16T10:38:52;8.57;;;1.90;;
52962;SDS011;38827;53.024;6.596;2022-10-16T11:02:38;9.30;;;1.80;;
52962;SDS011;38827;53.024;6.596;2022-10-16T11:10:44;9.45;;;2.05;;
52962;SDS011;38827;53.024;6.596;2022-10-16T11:25:15;9.82;;;2.03;;
52962;SDS011;38827;53.024;6.596;2022-10-16T11:28:19;7.82;;;1.80;;
52962;SDS011;38827;53.024;6.596;2022-10-16T11:31:10;9.23;;;1.90;;
52962;SDS011;38827;53.024;6.596;2022-10-16T11:36:44;14.10;;;2.00;;
52962;SDS011;38827;53.024;6.596;2022-10-16T11:39:21;9.68;;;1.70;;
52962;SDS011;38827;53.024;6.596;2022-10-16T11:41:49;10.32;;;2.08;;
52962;SDS011;38827;53.024;6.596;2022-10-16T11:50:14;8.93;;;2.05;;
52962;SDS011;38827;53.024;6.596;2022-10-16T11:55:55;8.07;;;1.73;;
52962;SDS011;38827;53.024;6.596;2022-10-16T11:58:25;11.43;;;2.15;;
52962;SDS011;38827;53.024;6.596;2022-10-16T12:01:12;9.45;;;1.80;;
52962;SDS011;38827;53.024;6.596;2022-10-16T12:04:04;7.95;;;2.10;;
52962;SDS011;38827;53.024;6.596;2022-10-16T12:06:46;9.13;;;1.77;;
52962;SDS011;38827;53.024;6.596;2022-10-16T12:09:30;8.63;;;1.77;;
52962;SDS011;38827;53.024;6.596;2022-10-16T12:12:00;10.70;;;2.00;;
52962;SDS011;38827;53.024;6.596;2022-10-16T12:19:59;8.82;;;2.15;;
52962;SDS011;38827;53.024;6.596;2022-10-16T12:22:49;6.78;;;1.98;;
52962;SDS011;38827;53.024;6.596;2022-10-16T12:25:22;10.55;;;2.10;;
52962;SDS011;38827;53.024;6.596;2022-10-16T12:27:55;6.70;;;1.83;;
52962;SDS011;38827;53.024;6.596;2022-10-16T12:30:24;9.68;;;2.25;;
52962;SDS011;38827;53.024;6.596;2022-10-16T12:33:02;8.75;;;1.80;;
52962;SDS011;38827;53.024;6.596;2022-10-16T12:35:32;6.97;;;1.85;;
52962;SDS011;38827;53.024;6.596;2022-10-16T12:38:24;5.75;;;1.70;;
52962;SDS011;38827;53.024;6.596;2022-10-16T12:51:53;5.65;;;1.77;;
52962;SDS011;38827;53.024;6.596;2022-10-16T12:54:24;6.95;;;1.70;;
52962;SDS011;38827;53.024;6.596;2022-10-16T12:59:53;9.98;;;2.13;;
52962;SDS011;38827;53.024;6.596;2022-10-16T13:05:32;10.00;;;1.85;;
52962;SDS011;38827;53.024;6.596;2022-10-16T13:17:21;5.75;;;1.77;;
52962;SDS011;38827;53.024;6.596;2022-10-16T13:28:44;5.80;;;1.40;;
52962;SDS011;38827;53.024;6.596;2022-10-16T13:31:15;6.57;;;2.20;;
52962;SDS011;38827;53.024;6.596;2022-10-16T13:33:56;6.37;;;1.60;;
52962;SDS011;38827;53.024;6.596;2022-10-16T13:36:34;6.70;;;1.52;;
52962;SDS011;38827;53.024;6.596;2022-10-16T13:39:31;8.75;;;1.98;;
52962;SDS011;38827;53.024;6.596;2022-10-16T13:42:40;7.20;;;1.48;;
52962;SDS011;38827;53.024;6.596;2022-10-16T13:44:55;7.63;;;1.70;;
52962;SDS011;38827;53.024;6.596;2022-10-16T13:47:34;7.95;;;1.52;;
52962;SDS011;38827;53.024;6.596;2022-10-16T13:50:00;7.13;;;1.95;;
52962;SDS011;38827;53.024;6.596;2022-10-16T13:52:46;6.18;;;1.55;;
52962;SDS011;38827;53.024;6.596;2022-10-16T13:55:22;8.27;;;1.58;;
52962;SDS011;38827;53.024;6.596;2022-10-16T13:58:21;10.93;;;2.13;;
52962;SDS011;38827;53.024;6.596;2022-10-16T14:00:58;9.52;;;2.50;;
52962;SDS011;38827;53.024;6.596;2022-10-16T14:04:06;5.80;;;1.40;;
52962;SDS011;38827;53.024;6.596;2022-10-16T14:06:59;10.57;;;1.80;;
52962;SDS011;38827;53.024;6.596;2022-10-16T14:09:36;6.07;;;1.52;;
52962;SDS011;38827;53.024;6.596;2022-10-16T14:12:10;9.38;;;2.28;;
52962;SDS011;38827;53.024;6.596;2022-10-16T14:14:53;8.05;;;1.88;;
52962;SDS011;38827;53.024;6.596;2022-10-16T14:17:56;8.68;;;1.80;;
52962;SDS011;38827;53.024;6.596;2022-10-16T14:20:41;7.13;;;1.70;;
52962;SDS011;38827;53.024;6.596;2022-10-16T14:23:23;9.48;;;1.88;;
52962;SDS011;38827;53.024;6.596;2022-10-16T14:26:27;8.85;;;1.73;;
52962;SDS011;38827;53.024;6.596;2022-10-16T14:29:01;7.20;;;1.60;;
52962;SDS011;38827;53.024;6.596;2022-10-16T14:32:20;10.55;;;2.17;;
52962;SDS011;38827;53.024;6.596;2022-10-16T14:38:21;9.27;;;2.00;;
52962;SDS011;38827;53.024;6.596;2022-10-16T14:40:47;11.02;;;2.00;;
52962;SDS011;38827;53.024;6.596;2022-10-16T14:43:34;10.88;;;2.10;;
52962;SDS011;38827;53.024;6.596;2022-10-16T14:46:30;8.63;;;1.65;;
52962;SDS011;38827;53.024;6.596;2022-10-16T14:49:18;11.13;;;2.10;;
52962;SDS011;38827;53.024;6.596;2022-10-16T14:51:53;9.18;;;1.90;;
52962;SDS011;38827;53.024;6.596;2022-10-16T14:54:25;10.35;;;2.20;;
52962;SDS011;38827;53.024;6.596;2022-10-16T14:56:51;11.18;;;2.90;;
52962;SDS011;38827;53.024;6.596;2022-10-16T14:59:46;9.52;;;2.20;;
52962;SDS011;38827;53.024;6.596;2022-10-16T15:02:30;11.77;;;2.45;;
52962;SDS011;38827;53.024;6.596;2022-10-16T15:12:02;11.82;;;2.10;;
52962;SDS011;38827;53.024;6.596;2022-10-16T15:14:28;14.27;;;2.35;;
52962;SDS011;38827;53.024;6.596;2022-10-16T15:17:03;15.60;;;3.08;;
52962;SDS011;38827;53.024;6.596;2022-10-16T15:19:28;11.23;;;2.15;;
52962;SDS011;38827;53.024;6.596;2022-10-16T15:21:54;9.50;;;2.00;;
52962;SDS011;38827;53.024;6.596;2022-10-16T15:27:21;12.57;;;2.55;;
52962;SDS011;38827;53.024;6.596;2022-10-16T15:29:59;8.73;;;2.08;;
52962;SDS011;38827;53.024;6.596;2022-10-16T15:32:28;13.25;;;3.40;;
52962;SDS011;38827;53.024;6.596;2022-10-16T15:35:04;11.32;;;2.95;;
52962;SDS011;38827;53.024;6.596;2022-10-16T15:37:32;11.65;;;2.25;;
52962;SDS011;38827;53.024;6.596;2022-10-16T15:40:04;9.55;;;2.00;;
52962;SDS011;38827;53.024;6.596;2022-10-16T15:42:31;12.07;;;2.13;;
52962;SDS011;38827;53.024;6.596;2022-10-16T15:45:06;13.68;;;2.83;;
52962;SDS011;38827;53.024;6.596;2022-10-16T15:47:32;10.07;;;2.25;;
52962;SDS011;38827;53.024;6.596;2022-10-16T15:49:58;16.27;;;2.50;;
52962;SDS011;38827;53.024;6.596;2022-10-16T15:52:29;12.30;;;2.35;;
52962;SDS011;38827;53.024;6.596;2022-10-16T15:54:57;17.45;;;3.22;;
52962;SDS011;38827;53.024;6.596;2022-10-16T15:57:23;16.17;;;2.65;;
52962;SDS011;38827;53.024;6.596;2022-10-16T15:59:58;14.68;;;2.30;;
52962;SDS011;38827;53.024;6.596;2022-10-16T16:02:42;19.58;;;2.97;;
52962;SDS011;38827;53.024;6.596;2022-10-16T16:05:18;9.35;;;2.20;;
52962;SDS011;38827;53.024;6.596;2022-10-16T16:10:11;10.77;;;2.43;;
52962;SDS011;38827;53.024;6.596;2022-10-16T16:12:49;14.13;;;3.47;;
52962;SDS011;38827;53.024;6.596;2022-10-16T16:15:24;12.15;;;3.10;;
52962;SDS011;38827;53.024;6.596;2022-10-16T16:17:50;12.02;;;3.17;;
52962;SDS011;38827;53.024;6.596;2022-10-16T16:20:24;14.10;;;3.00;;
52962;SDS011;38827;53.024;6.596;2022-10-16T16:23:01;9.50;;;2.63;;
52962;SDS011;38827;53.024;6.596;2022-10-16T16:25:27;16.80;;;2.70;;
52962;SDS011;38827;53.024;6.596;2022-10-16T16:27:53;12.07;;;2.70;;
52962;SDS011;38827;53.024;6.596;2022-10-16T16:30:18;14.40;;;2.92;;
52962;SDS011;38827;53.024;6.596;2022-10-16T16:33:06;11.88;;;3.45;;
52962;SDS011;38827;53.024;6.596;2022-10-16T16:35:38;8.95;;;2.88;;
52962;SDS011;38827;53.024;6.596;2022-10-16T16:38:04;15.00;;;3.10;;
52962;SDS011;38827;53.024;6.596;2022-10-16T16:40:29;14.55;;;3.40;;
52962;SDS011;38827;53.024;6.596;2022-10-16T16:43:16;9.60;;;2.63;;
52962;SDS011;38827;53.024;6.596;2022-10-16T16:45:42;12.65;;;2.95;;
52962;SDS011;38827;53.024;6.596;2022-10-16T16:48:07;15.20;;;3.00;;
52962;SDS011;38827;53.024;6.596;2022-10-16T16:50:51;14.98;;;3.03;;
52962;SDS011;38827;53.024;6.596;2022-10-16T16:53:35;13.27;;;3.28;;
52962;SDS011;38827;53.024;6.596;2022-10-16T16:56:22;14.20;;;4.07;;
52962;SDS011;38827;53.024;6.596;2022-10-16T16:58:49;16.50;;;3.63;;
52962;SDS011;38827;53.024;6.596;2022-10-16T17:01:16;12.05;;;2.70;;
52962;SDS011;38827;53.024;6.596;2022-10-16T17:03:42;12.50;;;2.90;;
52962;SDS011;38827;53.024;6.596;2022-10-16T17:06:22;11.75;;;2.92;;
52962;SDS011;38827;53.024;6.596;2022-10-16T17:08:49;12.73;;;3.47;;
52962;SDS011;38827;53.024;6.596;2022-10-16T17:11:16;13.48;;;3.70;;
52962;SDS011;38827;53.024;6.596;2022-10-16T17:13:45;12.82;;;3.30;;
52962;SDS011;38827;53.024;6.596;2022-10-16T17:16:11;13.45;;;3.30;;
52962;SDS011;38827;53.024;6.596;2022-10-16T17:18:37;9.93;;;2.30;;
52962;SDS011;38827;53.024;6.596;2022-10-16T17:21:04;9.60;;;2.15;;
52962;SDS011;38827;53.024;6.596;2022-10-16T17:23:32;7.78;;;2.20;;
52962;SDS011;38827;53.024;6.596;2022-10-16T17:26:03;13.77;;;2.45;;
52962;SDS011;38827;53.024;6.596;2022-10-16T17:28:30;9.52;;;2.08;;
52962;SDS011;38827;53.024;6.596;2022-10-16T17:30:55;12.32;;;2.60;;
52962;SDS011;38827;53.024;6.596;2022-10-16T17:33:21;13.13;;;2.55;;
52962;SDS011;38827;53.024;6.596;2022-10-16T17:35:48;14.20;;;2.60;;
52962;SDS011;38827;53.024;6.596;2022-10-16T17:38:14;10.63;;;2.60;;
52962;SDS011;38827;53.024;6.596;2022-10-16T17:40:40;15.73;;;3.15;;
52962;SDS011;38827;53.024;6.596;2022-10-16T17:43:10;17.15;;;5.25;;
52962;SDS011;38827;53.024;6.596;2022-10-16T17:45:38;20.55;;;6.65;;
52962;SDS011;38827;53.024;6.596;2022-10-16T17:48:04;14.20;;;4.13;;
52962;SDS011;38827;53.024;6.596;2022-10-16T17:50:30;16.70;;;3.13;;
52962;SDS011;38827;53.024;6.596;2022-10-16T17:52:56;10.88;;;2.10;;
52962;SDS011;38827;53.024;6.596;2022-10-16T17:55:22;7.88;;;2.58;;
52962;SDS011;38827;53.024;6.596;2022-10-16T17:57:48;11.68;;;2.40;;
52962;SDS011;38827;53.024;6.596;2022-10-16T18:00:14;9.32;;;2.22;;
52962;SDS011;38827;53.024;6.596;2022-10-16T18:02:39;12.63;;;2.45;;
52962;SDS011;38827;53.024;6.596;2022-10-16T18:05:07;8.90;;;2.25;;
52962;SDS011;38827;53.024;6.596;2022-10-16T18:07:35;17.77;;;3.17;;
52962;SDS011;38827;53.024;6.596;2022-10-16T18:10:10;12.77;;;2.38;;
52962;SDS011;38827;53.024;6.596;2022-10-16T18:12:36;12.30;;;2.17;;
52962;SDS011;38827;53.024;6.596;2022-10-16T18:15:02;12.55;;;1.88;;